ADDS METAR Data INFO
IDs: Format: Raw Decoded Include TAF

Data at: 1602 UTC 12 Dec 2017

KOMN 121550Z 23010G16KT 10SM SKC 17/12 A2998
KOMN 121450Z 22008KT 10SM SKC 15/11 A3001
KOMN 121350Z 21005KT 10SM SKC 10/09 A3003
KOMN 121250Z 21007KT 10SM SKC 08/08 A3003
KOMN 121150Z 21005KT 10SM SKC 07/06 A3004 RMK FIRST
KOMN 112350Z 00000KT 10SM SKC 09/03 A3017 RMK LAST
KOMN 112250Z 00000KT 10SM SKC 10/03 A3016
KOMN 112150Z 23003KT 10SM SKC 14/M01 A3015
KOMN 112050Z 25006KT 10SM SKC 15/M02 A3015
KOMN 111950Z 25006KT 10SM SKC 15/M01 A3016
KOMN 111850Z 26006KT 10SM SKC 15/M02 A3018
KOMN 111750Z 32006KT 10SM SKC 14/M02 A3021
KOMN 111650Z 30006KT 10SM SKC 12/M01 A3026
KOMN 111550Z 30006KT 10SM SKC 11/00 A3028
KOMN 111450Z 33004KT 10SM SKC 09/02 A3030
KOMN 111350Z 32005KT 10SM SKC 06/03 A3031
KOMN 111250Z 00000KT 10SM SKC 02/02 A3031
KOMN 111150Z 00000KT 10SM SKC 02/02 A3030 RMK FIRST